Time;durP1;ratioP1;P1;durP2;ratioP2;P2;SDS_P1;SDS_P2;PMS_P1;PMS_P2;Temp;Humidity;BMP_temperature;BMP_pressure;BME280_temperature;BME280_humidity;BME280_pressure;Samples;Min_cycle;Max_cycle;Signal;HPM_P1;HPM_P2
2023/04/04 00:01:48;;;;;;;28.27;9.13;;;3.00;89.30;;;;;;4996896;28;20488;-60
2023/04/04 00:04:14;;;;;;;22.60;8.63;;;2.90;88.70;;;;;;4992768;28;20526;-60
2023/04/04 00:06:44;;;;;;;23.30;7.77;;;2.90;88.60;;;;;;4987453;28;20994;-60
2023/04/04 00:09:12;;;;;;;22.07;8.80;;;2.90;88.40;;;;;;5006957;28;20580;-60
2023/04/04 00:11:41;;;;;;;19.13;7.50;;;2.90;88.50;;;;;;4977167;28;20509;-60
2023/04/04 00:14:07;;;;;;;25.30;9.30;;;2.90;87.90;;;;;;5001641;28;21114;-60
2023/04/04 00:16:35;;;;;;;21.17;7.60;;;2.90;88.60;;;;;;4973263;28;20482;-60
2023/04/04 00:19:01;;;;;;;36.13;10.53;;;2.90;89.20;;;;;;4997461;28;20981;-60
2023/04/04 00:21:29;;;;;;;15.87;6.27;;;2.90;89.10;;;;;;4994618;28;20899;-60
2023/04/04 00:23:56;;;;;;;29.50;9.50;;;2.90;89.20;;;;;;4989804;28;20490;-60
2023/04/04 00:26:25;;;;;;;25.57;9.13;;;2.80;88.30;;;;;;4984350;28;20516;-60
2023/04/04 00:28:51;;;;;;;19.47;8.40;;;2.80;88.60;;;;;;4989894;28;20489;-60
2023/04/04 00:31:18;;;;;;;18.07;8.20;;;2.70;88.40;;;;;;4991502;28;20495;-60
2023/04/04 00:33:45;;;;;;;24.23;9.03;;;2.60;89.50;;;;;;4989525;28;20482;-60
2023/04/04 00:36:12;;;;;;;30.67;11.00;;;2.60;89.40;;;;;;4999474;28;21029;-60
2023/04/04 00:38:38;;;;;;;17.63;6.67;;;3.50;89.80;;;;;;4999775;28;20489;-60
2023/04/04 00:41:06;;;;;;;29.67;9.90;;;2.50;89.00;;;;;;5008336;28;20484;-60
2023/04/04 00:43:35;;;;;;;19.87;6.70;;;2.50;88.60;;;;;;5000902;28;20480;-60
2023/04/04 00:46:01;;;;;;;30.70;9.90;;;2.50;89.00;;;;;;4969385;28;20482;-60
2023/04/04 00:48:29;;;;;;;37.13;8.80;;;2.40;88.80;;;;;;4989826;28;20521;-60
2023/04/04 00:50:55;;;;;;;21.87;8.50;;;2.40;88.40;;;;;;4987739;28;21006;-60
2023/04/04 00:53:22;;;;;;;23.33;8.77;;;2.30;88.30;;;;;;4979011;28;20496;-60
2023/04/04 00:55:49;;;;;;;18.93;6.37;;;2.30;88.50;;;;;;4984229;28;20484;-60
2023/04/04 00:58:16;;;;;;;26.17;9.97;;;2.70;89.30;;;;;;5004393;28;20497;-59
2023/04/04 01:00:44;;;;;;;16.53;7.07;;;2.30;88.90;;;;;;5010606;28;20488;-60
2023/04/04 01:03:11;;;;;;;41.13;10.23;;;2.30;88.90;;;;;;4978401;28;20494;-60
2023/04/04 01:05:39;;;;;;;13.37;6.60;;;2.20;89.00;;;;;;4989648;28;20890;-60
2023/04/04 01:08:06;;;;;;;23.17;10.10;;;2.20;88.90;;;;;;4979440;28;20869;-60
2023/04/04 01:10:33;;;;;;;11.90;6.00;;;2.20;89.50;;;;;;4990289;28;20482;-60
2023/04/04 01:13:00;;;;;;;20.27;8.70;;;2.10;89.20;;;;;;4986034;28;21203;-60
2023/04/04 01:15:27;;;;;;;12.03;6.50;;;2.10;89.70;;;;;;4991126;28;20487;-60
2023/04/04 01:17:58;;;;;;;11.93;6.77;;;2.00;90.00;;;;;;5007347;28;20479;-60
2023/04/04 01:20:26;;;;;;;14.47;7.00;;;1.90;89.80;;;;;;5016995;28;20472;-60
2023/04/04 01:22:55;;;;;;;16.23;6.33;;;1.90;90.00;;;;;;4996698;28;20486;-60
2023/04/04 01:25:30;;;;;;;23.00;6.90;;;2.00;90.20;;;;;;4980917;28;21140;-60
2023/04/04 01:27:57;;;;;;;27.37;10.23;;;2.00;89.80;;;;;;4979619;28;20539;-60
2023/04/04 01:30:26;;;;;;;22.30;8.57;;;2.00;89.60;;;;;;5003407;28;20492;-59
2023/04/04 01:32:59;;;;;;;14.90;7.10;;;2.10;90.00;;;;;;4989610;28;21062;-59
2023/04/04 01:35:32;;;;;;;16.00;8.43;;;2.10;89.80;;;;;;5005870;28;20564;-60
2023/04/04 01:38:14;;;;;;;24.03;8.43;;;2.00;89.40;;;;;;4996215;28;20867;-60
2023/04/04 01:40:47;;;;;;;18.13;7.73;;;2.10;90.00;;;;;;4986930;28;20523;-60
2023/04/04 01:43:14;;;;;;;19.73;6.77;;;2.10;90.10;;;;;;4987222;28;20515;-59
2023/04/04 01:45:41;;;;;;;20.33;8.80;;;2.10;90.10;;;;;;5005214;28;20480;-60
2023/04/04 01:48:09;;;;;;;26.27;10.13;;;2.10;89.60;;;;;;5009410;28;21025;-60
2023/04/04 01:50:36;;;;;;;19.23;6.97;;;2.10;89.70;;;;;;4981016;28;20502;-60
2023/04/04 01:53:03;;;;;;;24.17;9.63;;;2.10;89.20;;;;;;5008096;28;20485;-60
2023/04/04 01:55:30;;;;;;;17.27;8.63;;;2.00;88.80;;;;;;4979474;28;20491;-60
2023/04/04 01:57:58;;;;;;;23.63;7.97;;;2.00;89.30;;;;;;4986336;28;20488;-60
2023/04/04 02:00:24;;;;;;;12.07;6.97;;;2.00;89.30;;;;;;4997509;28;20999;-59
2023/04/04 02:02:51;;;;;;;13.43;6.43;;;2.00;89.00;;;;;;4976521;28;20486;-59
2023/04/04 02:05:18;;;;;;;23.40;7.93;;;1.90;89.50;;;;;;4978773;28;20647;-59
2023/04/04 02:07:48;;;;;;;17.77;7.10;;;2.00;89.30;;;;;;4984140;28;20915;-59
2023/04/04 02:10:15;;;;;;;16.07;7.30;;;1.90;89.40;;;;;;4996653;28;20514;-59
2023/04/04 02:12:42;;;;;;;22.30;8.73;;;1.90;89.20;;;;;;4973347;28;20481;-59
2023/04/04 02:15:10;;;;;;;20.27;8.57;;;1.90;88.90;;;;;;5008214;28;20866;-59
2023/04/04 02:17:38;;;;;;;12.23;5.67;;;;;;;;;;4985197;28;20594;-59
2023/04/04 02:20:06;;;;;;;24.47;8.97;;;1.90;89.00;;;;;;4980595;28;20496;-59
2023/04/04 02:22:34;;;;;;;25.73;7.23;;;1.90;89.30;;;;;;4995841;28;20485;-59
2023/04/04 02:25:01;;;;;;;19.67;7.80;;;1.80;89.00;;;;;;4996297;28;20485;-59
2023/04/04 02:27:28;;;;;;;24.53;8.60;;;2.60;90.10;;;;;;4978068;28;20497;-59
2023/04/04 02:29:55;;;;;;;16.30;7.80;;;1.80;89.20;;;;;;4979305;28;20492;-59
2023/04/04 02:32:23;;;;;;;23.13;10.47;;;1.80;89.20;;;;;;4968334;28;20493;-59
2023/04/04 02:34:50;;;;;;;13.93;6.27;;;1.80;89.40;;;;;;4982340;28;20477;-59
2023/04/04 02:37:17;;;;;;;23.70;9.43;;;1.80;88.80;;;;;;4981743;28;20900;-59
2023/04/04 02:39:44;;;;;;;18.70;7.67;;;1.80;89.20;;;;;;4961857;28;20733;-59
2023/04/04 02:42:11;;;;;;;20.17;8.87;;;1.80;89.20;;;;;;4983078;28;20484;-59
2023/04/04 02:44:37;;;;;;;21.73;8.33;;;1.70;88.90;;;;;;4982892;28;21013;-59
2023/04/04 02:47:06;;;;;;;19.53;7.67;;;1.70;89.30;;;;;;5010269;28;20490;-60
2023/04/04 02:49:34;;;;;;;20.07;9.53;;;1.70;89.20;;;;;;5001789;28;20519;-60
2023/04/04 02:52:01;;;;;;;18.60;7.77;;;1.70;89.30;;;;;;5012825;28;20495;-60
2023/04/04 02:54:28;;;;;;;19.73;6.57;;;1.60;89.00;;;;;;5010734;28;20488;-60
2023/04/04 02:56:54;;;;;;;17.57;6.00;;;1.60;89.20;;;;;;4990569;28;20485;-60
2023/04/04 02:59:21;;;;;;;24.70;7.50;;;1.60;89.30;;;;;;4995251;28;20626;-60
2023/04/04 03:01:48;;;;;;;17.27;7.43;;;1.60;89.10;;;;;;5013450;28;20491;-60
2023/04/04 03:04:15;;;;;;;17.00;8.00;;;1.60;89.20;;;;;;4992648;28;21040;-61
2023/04/04 03:06:43;;;;;;;24.00;8.80;;;1.60;89.20;;;;;;5008926;28;20999;-60
2023/04/04 03:09:09;;;;;;;22.73;9.23;;;1.60;89.40;;;;;;4968342;28;20485;-60
2023/04/04 03:11:36;;;;;;;20.13;7.60;;;1.50;89.20;;;;;;4991946;28;20511;-60
2023/04/04 03:14:03;;;;;;;21.33;8.60;;;1.50;89.40;;;;;;4965407;28;20819;-60
2023/04/04 03:16:30;;;;;;;19.83;8.03;;;1.50;89.20;;;;;;4993854;28;20759;-59
2023/04/04 03:18:56;;;;;;;21.17;8.57;;;1.50;89.30;;;;;;4977906;28;20496;-59
2023/04/04 03:21:23;;;;;;;22.90;9.03;;;1.50;89.00;;;;;;4969350;28;20913;-59
2023/04/04 03:23:51;;;;;;;19.17;7.90;;;1.50;89.50;;;;;;4992744;28;20521;-59
2023/04/04 03:26:18;;;;;;;15.50;7.53;;;1.60;89.60;;;;;;5002906;28;20847;-60
2023/04/04 03:28:44;;;;;;;18.77;7.83;;;1.50;89.20;;;;;;4988020;28;20480;-60
2023/04/04 03:31:11;;;;;;;24.57;9.43;;;1.50;89.40;;;;;;4995906;28;20500;-59
2023/04/04 03:33:38;;;;;;;14.20;7.03;;;1.40;89.30;;;;;;4983142;28;21090;-60
2023/04/04 03:36:10;;;;;;;23.73;9.23;;;1.40;89.20;;;;;;5002841;28;20973;-59
2023/04/04 03:38:37;;;;;;;26.70;7.50;;;1.40;89.30;;;;;;4996762;28;20488;-59
2023/04/04 03:41:06;;;;;;;29.50;9.50;;;1.40;89.40;;;;;;5008882;28;20572;-60
2023/04/04 03:43:34;;;;;;;18.57;7.20;;;1.30;89.50;;;;;;5009420;28;20542;-60
2023/04/04 03:46:01;;;;;;;22.00;7.77;;;1.40;89.40;;;;;;4992403;28;20496;-60
2023/04/04 03:48:28;;;;;;;18.10;8.57;;;1.90;89.70;;;;;;5003810;28;20518;-60
2023/04/04 03:50:56;;;;;;;14.23;7.00;;;1.30;89.40;;;;;;4987012;28;20473;-60
2023/04/04 03:53:23;;;;;;;14.67;6.30;;;1.30;89.30;;;;;;5023102;28;20853;-60
2023/04/04 03:55:50;;;;;;;17.73;8.03;;;1.30;89.30;;;;;;5000997;28;20480;-60
2023/04/04 03:58:18;;;;;;;23.40;9.47;;;1.20;89.20;;;;;;5005804;28;21136;-60
2023/04/04 04:00:45;;;;;;;22.43;6.73;;;1.20;89.40;;;;;;4975319;28;20754;-60
2023/04/04 04:03:11;;;;;;;31.17;9.70;;;1.20;89.60;;;;;;4999283;28;20481;-60
2023/04/04 04:05:38;;;;;;;20.63;7.90;;;1.20;89.50;;;;;;5007107;28;20473;-60
2023/04/04 04:08:05;;;;;;;29.07;8.63;;;1.30;89.70;;;;;;5008825;28;20490;-60
2023/04/04 04:10:33;;;;;;;24.90;9.00;;;1.20;89.50;;;;;;5008463;28;20663;-60
2023/04/04 04:13:00;;;;;;;23.33;8.70;;;1.30;89.70;;;;;;4978861;28;20528;-59
2023/04/04 04:15:28;;;;;;;21.67;8.03;;;1.20;89.60;;;;;;4986367;28;20491;-60
2023/04/04 04:17:54;;;;;;;21.90;7.53;;;1.20;89.50;;;;;;4995730;28;20485;-60
2023/04/04 04:20:21;;;;;;;17.47;8.43;;;1.20;90.00;;;;;;4970977;28;20495;-60
2023/04/04 04:22:48;;;;;;;19.83;7.17;;;1.20;90.00;;;;;;4995788;28;20481;-60
2023/04/04 04:25:15;;;;;;;18.07;7.07;;;1.20;89.60;;;;;;4986862;28;20486;-60
2023/04/04 04:27:42;;;;;;;24.97;7.60;;;1.20;89.90;;;;;;4985326;28;20485;-60
2023/04/04 04:30:09;;;;;;;22.60;7.90;;;1.20;89.50;;;;;;5011270;28;20484;-60
2023/04/04 04:32:37;;;;;;;26.10;8.83;;;1.20;89.30;;;;;;5002545;28;20512;-60
2023/04/04 04:35:05;;;;;;;22.57;8.90;;;1.30;89.80;;;;;;5004242;28;21039;-60
2023/04/04 04:37:32;;;;;;;25.13;9.80;;;1.30;89.50;;;;;;5017354;28;20478;-60
2023/04/04 04:40:00;;;;;;;22.40;8.53;;;1.20;89.30;;;;;;4989623;28;20867;-60
2023/04/04 04:42:28;;;;;;;20.03;8.97;;;1.10;89.30;;;;;;5013020;28;20490;-60
2023/04/04 04:44:54;;;;;;;15.40;5.97;;;1.10;89.90;;;;;;4961991;28;20467;-60
2023/04/04 04:47:21;;;;;;;12.77;7.30;;;1.10;90.00;;;;;;4987709;28;20495;-60
2023/04/04 04:49:49;;;;;;;29.70;9.60;;;1.10;89.90;;;;;;5001731;28;20508;-60
2023/04/04 04:52:18;;;;;;;21.70;7.10;;;1.00;89.80;;;;;;4989340;28;20787;-60
2023/04/04 04:54:45;;;;;;;17.70;7.33;;;1.00;89.80;;;;;;4986710;28;21422;-60
2023/04/04 04:57:11;;;;;;;21.70;8.57;;;1.00;90.00;;;;;;4982127;28;20520;-60
2023/04/04 04:59:40;;;;;;;20.93;7.43;;;1.00;89.60;;;;;;4990943;28;20843;-60
2023/04/04 05:02:07;;;;;;;30.30;10.70;;;1.00;89.50;;;;;;5002856;28;20484;-60
2023/04/04 05:04:33;;;;;;;16.07;7.37;;;1.00;89.50;;;;;;5000930;28;20486;-60
2023/04/04 05:07:02;;;;;;;20.67;8.27;;;1.00;89.90;;;;;;4998754;28;20891;-59
2023/04/04 05:09:28;;;;;;;19.67;8.67;;;1.00;89.60;;;;;;4985314;28;20486;-60
2023/04/04 05:11:56;;;;;;;16.37;7.10;;;;;;;;;;4962295;28;20927;-59
2023/04/04 05:14:23;;;;;;;26.47;8.83;;;1.00;89.80;;;;;;4986965;28;20486;-59
2023/04/04 05:16:49;;;;;;;15.80;7.13;;;1.00;89.80;;;;;;4977200;28;20928;-59
2023/04/04 05:19:16;;;;;;;21.27;8.50;;;;;;;;;;4999182;28;20716;-59
2023/04/04 05:21:43;;;;;;;17.53;6.97;;;1.00;89.40;;;;;;4977995;28;21108;-59
2023/04/04 05:24:11;;;;;;;32.83;10.37;;;1.10;90.00;;;;;;4998827;28;21184;-59
2023/04/04 05:26:38;;;;;;;18.37;7.17;;;1.00;89.50;;;;;;5011550;28;20573;-60
2023/04/04 05:29:05;;;;;;;26.50;9.57;;;1.00;89.60;;;;;;4983011;28;20489;-59
2023/04/04 05:31:32;;;;;;;13.77;7.60;;;1.00;89.40;;;;;;5006171;28;21015;-59
2023/04/04 05:33:59;;;;;;;17.57;7.50;;;1.00;90.10;;;;;;4970608;28;20510;-59
2023/04/04 05:36:26;;;;;;;13.57;7.27;;;1.10;90.00;;;;;;5006177;28;20497;-59
2023/04/04 05:38:53;;;;;;;19.27;8.63;;;1.10;90.10;;;;;;4983608;28;20763;-59
2023/04/04 05:41:22;;;;;;;26.40;10.97;;;1.20;90.00;;;;;;5017118;28;20493;-59
2023/04/04 05:43:49;;;;;;;12.60;6.07;;;1.20;90.00;;;;;;5010085;28;20481;-59
2023/04/04 05:46:16;;;;;;;23.57;9.80;;;1.20;90.00;;;;;;5002991;28;20500;-59
2023/04/04 05:48:42;;;;;;;20.87;8.37;;;1.30;90.00;;;;;;4998491;28;20488;-59
2023/04/04 05:51:09;;;;;;;29.47;10.50;;;1.30;89.30;;;;;;5005207;28;20484;-59
2023/04/04 05:53:36;;;;;;;25.10;9.73;;;1.30;89.20;;;;;;4999300;28;20492;-59
2023/04/04 05:56:03;;;;;;;28.47;9.70;;;1.30;89.70;;;;;;4988641;28;20476;-60
2023/04/04 05:58:31;;;;;;;21.27;9.30;;;1.40;89.80;;;;;;4986182;28;20488;-60
2023/04/04 06:00:58;;;;;;;18.40;6.60;;;1.40;89.30;;;;;;5003016;28;20476;-60
2023/04/04 06:03:24;;;;;;;18.33;8.87;;;1.40;89.30;;;;;;4977590;28;20481;-60
2023/04/04 06:05:52;;;;;;;17.57;8.40;;;1.50;89.70;;;;;;4997062;28;20492;-60
2023/04/04 06:08:19;;;;;;;19.40;8.57;;;1.90;90.40;;;;;;4984353;28;20535;-60
2023/04/04 06:10:46;;;;;;;17.07;7.57;;;2.70;90.10;;;;;;5008201;28;20481;-60
2023/04/04 06:13:12;;;;;;;19.33;8.53;;;3.20;88.30;;;;;;4992276;28;20701;-60
2023/04/04 06:15:40;;;;;;;16.93;7.80;;;3.60;88.30;;;;;;4980288;28;20858;-61
2023/04/04 06:18:07;;;;;;;26.27;10.23;;;4.40;86.60;;;;;;4975042;28;20490;-61
2023/04/04 06:20:34;;;;;;;19.10;8.40;;;4.90;85.70;;;;;;4977637;28;20491;-61
2023/04/04 06:23:03;;;;;;;14.10;7.57;;;5.40;85.30;;;;;;4973990;28;20488;-60
2023/04/04 06:25:30;;;;;;;22.73;8.50;;;6.10;82.10;;;;;;5010850;28;20474;-61
2023/04/04 06:27:58;;;;;;;13.10;6.50;;;6.50;81.80;;;;;;4986516;28;20847;-61
2023/04/04 06:30:25;;;;;;;11.43;6.53;;;7.30;81.80;;;;;;4981173;28;21009;-61
2023/04/04 06:32:53;;;;;;;8.77;6.00;;;8.40;80.60;;;;;;4970659;28;20743;-61
2023/04/04 06:35:20;;;;;;;13.23;8.30;;;9.10;77.90;;;;;;4987032;28;20496;-62
2023/04/04 06:37:47;;;;;;;10.43;7.07;;;9.70;76.40;;;;;;4990793;28;20497;-61
2023/04/04 06:40:14;;;;;;;26.50;8.30;;;9.90;73.90;;;;;;4979660;28;21000;-61
2023/04/04 06:42:49;;;;;;;11.97;7.33;;;10.10;71.40;;;;;;4987882;28;20920;-61
2023/04/04 06:45:16;;;;;;;9.83;6.80;;;10.20;70.30;;;;;;4974263;28;20473;-61
2023/04/04 06:47:43;;;;;;;14.60;6.43;;;10.60;70.60;;;;;;4985027;28;20725;-61
2023/04/04 06:50:12;;;;;;;10.27;6.93;;;10.80;70.00;;;;;;5016354;28;20478;-62
2023/04/04 06:52:38;;;;;;;9.40;8.00;;;10.50;67.60;;;;;;4992727;28;20855;-62
2023/04/04 06:55:07;;;;;;;14.30;7.10;;;10.00;68.50;;;;;;4980046;28;20500;-61
2023/04/04 06:57:34;;;;;;;7.87;5.97;;;9.80;69.80;;;;;;4999801;28;20486;-62
2023/04/04 07:00:01;;;;;;;8.30;7.00;;;9.90;70.30;;;;;;4986312;28;20500;-61
2023/04/04 07:02:28;;;;;;;10.03;5.07;;;10.40;69.90;;;;;;4990387;28;20485;-62
2023/04/04 07:04:54;;;;;;;9.50;5.67;;;10.20;70.00;;;;;;4989026;28;20513;-61
2023/04/04 07:07:23;;;;;;;10.50;7.37;;;10.20;69.20;;;;;;4984449;28;21015;-62
2023/04/04 07:09:50;;;;;;;12.10;5.73;;;10.20;67.80;;;;;;5004027;28;20470;-62
2023/04/04 07:12:17;;;;;;;15.57;9.80;;;9.60;69.30;;;;;;4981026;28;21211;-61
2023/04/04 07:14:44;;;;;;;9.30;5.53;;;9.50;69.60;;;;;;4990116;28;20484;-61
2023/04/04 07:17:10;;;;;;;12.23;5.90;;;9.90;73.80;;;;;;4993174;28;20843;-62
2023/04/04 07:19:37;;;;;;;8.43;6.10;;;10.20;70.60;;;;;;5001579;28;20488;-62
2023/04/04 07:22:05;;;;;;;10.43;7.73;;;10.30;70.40;;;;;;4997957;28;20835;-62
2023/04/04 07:24:33;;;;;;;15.10;5.67;;;10.10;69.30;;;;;;4991225;28;20512;-62
2023/04/04 07:26:59;;;;;;;7.70;6.33;;;10.00;69.30;;;;;;5010818;28;21027;-62
2023/04/04 07:29:26;;;;;;;12.60;7.90;;;9.80;70.00;;;;;;5003909;28;20480;-62
2023/04/04 07:31:53;;;;;;;12.17;5.30;;;9.60;70.30;;;;;;5002994;28;20492;-62
2023/04/04 07:34:20;;;;;;;8.33;5.50;;;9.20;70.00;;;;;;5000045;28;20484;-61
2023/04/04 07:36:46;;;;;;;9.70;5.77;;;9.00;70.40;;;;;;5006622;28;21100;-62
2023/04/04 07:39:13;;;;;;;19.23;8.27;;;8.80;71.80;;;;;;5012870;28;20484;-61
2023/04/04 07:41:41;;;;;;;7.47;5.20;;;8.90;72.60;;;;;;5016318;28;20487;-62
2023/04/04 07:44:08;;;;;;;22.33;11.70;;;8.80;72.40;;;;;;5011479;28;20863;-62
2023/04/04 07:46:35;;;;;;;21.10;6.00;;;9.10;73.20;;;;;;5009880;28;20488;-62
2023/04/04 07:49:02;;;;;;;15.17;7.70;;;9.10;72.50;;;;;;5017068;28;20654;-62
2023/04/04 07:51:29;;;;;;;17.87;9.07;;;9.10;72.40;;;;;;5018148;28;20580;-61
2023/04/04 07:53:56;;;;;;;13.30;5.60;;;9.00;72.10;;;;;;4999917;28;20523;-61
2023/04/04 07:56:23;;;;;;;12.57;7.10;;;9.00;70.90;;;;;;5008730;28;20963;-61
2023/04/04 07:58:51;;;;;;;13.53;6.37;;;9.00;69.80;;;;;;5023467;28;20481;-61
2023/04/04 08:01:18;;;;;;;16.17;8.37;;;8.90;71.30;;;;;;5006044;28;20598;-61
2023/04/04 08:03:45;;;;;;;12.30;7.47;;;9.00;71.60;;;;;;5017311;28;20476;-62
2023/04/04 08:06:12;;;;;;;10.87;6.70;;;9.00;70.40;;;;;;5025858;28;20476;-60
2023/04/04 08:08:40;;;;;;;10.37;5.77;;;8.90;67.90;;;;;;5014015;28;20488;-61
2023/04/04 08:11:06;;;;;;;14.27;7.50;;;8.90;67.30;;;;;;5016316;28;20481;-61
2023/04/04 08:13:33;;;;;;;12.73;6.30;;;8.90;70.40;;;;;;5016019;28;20838;-60
2023/04/04 08:16:01;;;;;;;14.60;7.30;;;8.50;66.90;;;;;;5011405;28;20477;-61
2023/04/04 08:18:28;;;;;;;16.20;7.77;;;8.60;71.20;;;;;;5009652;28;20488;-61
2023/04/04 08:20:54;;;;;;;15.90;6.87;;;8.40;66.50;;;;;;5023036;28;20485;-60
2023/04/04 08:23:21;;;;;;;8.17;4.33;;;8.50;67.30;;;;;;5013685;28;20496;-60
2023/04/04 08:25:48;;;;;;;12.17;6.53;;;8.50;68.70;;;;;;5010131;28;20840;-61
2023/04/04 08:28:15;;;;;;;18.63;8.20;;;8.70;69.90;;;;;;5014298;28;20492;-61
2023/04/04 08:30:41;;;;;;;17.43;5.83;;;8.80;69.60;;;;;;5014841;28;20613;-60
2023/04/04 08:33:09;;;;;;;14.60;7.43;;;8.90;68.90;;;;;;5009353;28;20488;-60
2023/04/04 08:35:36;;;;;;;12.03;6.83;;;9.00;69.00;;;;;;5017002;28;20516;-61
2023/04/04 08:38:05;;;;;;;17.97;9.03;;;9.00;66.30;;;;;;5010407;28;20516;-60
2023/04/04 08:40:32;;;;;;;10.40;5.43;;;9.00;67.40;;;;;;5015431;28;20493;-61
2023/04/04 08:42:59;;;;;;;11.97;6.67;;;8.90;66.90;;;;;;5015937;28;20487;-61
2023/04/04 08:45:27;;;;;;;14.20;8.00;;;9.10;67.00;;;;;;5011923;28;20484;-61
2023/04/04 08:47:56;;;;;;;16.17;7.27;;;8.80;64.60;;;;;;4993133;28;20571;-62
2023/04/04 08:50:24;;;;;;;20.00;8.00;;;8.60;67.70;;;;;;4997970;28;20499;-61
2023/04/04 08:52:52;;;;;;;11.83;6.70;;;8.30;64.00;;;;;;5015067;28;20476;-62
2023/04/04 08:55:20;;;;;;;11.53;6.93;;;8.10;63.90;;;;;;5010599;28;21031;-61
2023/04/04 08:57:46;;;;;;;21.80;6.40;;;7.60;64.50;;;;;;5014274;28;20499;-61
2023/04/04 09:00:16;;;;;;;9.57;5.83;;;7.90;69.10;;;;;;5017588;28;20564;-61
2023/04/04 09:02:49;;;;;;;11.03;5.33;;;7.90;67.80;;;;;;5013583;28;20592;-62
2023/04/04 09:05:17;;;;;;;16.90;6.40;;;8.10;69.00;;;;;;4995279;28;20572;-61
2023/04/04 09:07:45;;;;;;;12.40;6.53;;;8.30;70.40;;;;;;5019441;28;20723;-62
2023/04/04 09:10:12;;;;;;;14.50;7.87;;;8.50;69.00;;;;;;4999161;28;20599;-61
2023/04/04 09:12:44;;;;;;;14.90;6.23;;;8.80;67.70;;;;;;5001974;28;21008;-61
2023/04/04 09:15:11;;;;;;;12.70;7.40;;;8.70;66.30;;;;;;5010769;28;20481;-61
2023/04/04 09:17:38;;;;;;;11.87;6.93;;;9.10;68.30;;;;;;5013259;28;20740;-62
2023/04/04 09:20:39;;;;;;;13.30;8.17;;;9.20;66.10;;;;;;5012209;28;20837;-62
2023/04/04 09:23:08;;;;;;;19.20;7.70;;;9.20;67.20;;;;;;4984416;28;20480;-62
2023/04/04 09:25:36;;;;;;;13.17;7.50;;;9.30;68.10;;;;;;5014219;28;20812;-61
2023/04/04 09:28:04;;;;;;;20.63;10.20;;;9.50;67.70;;;;;;5012356;28;20568;-61
2023/04/04 09:30:32;;;;;;;16.77;6.30;;;9.70;67.80;;;;;;5000925;28;20848;-61
2023/04/04 09:33:02;;;;;;;9.30;5.57;;;9.90;69.40;;;;;;4991986;28;20853;-62
2023/04/04 09:35:29;;;;;;;13.87;6.73;;;;;;;;;;5018976;28;20974;-61
2023/04/04 09:37:56;;;;;;;13.77;7.67;;;9.80;67.80;;;;;;5014898;28;20493;-61
2023/04/04 09:40:25;;;;;;;10.60;6.73;;;9.80;68.90;;;;;;5013203;28;20485;-61
2023/04/04 09:42:54;;;;;;;11.87;6.60;;;9.80;67.80;;;;;;5016088;28;20566;-62
2023/04/04 09:45:24;;;;;;;14.77;7.90;;;9.90;67.00;;;;;;5007921;28;20681;-61
2023/04/04 09:47:51;;;;;;;12.63;7.43;;;10.00;66.80;;;;;;5010541;28;20841;-61
2023/04/04 09:50:22;;;;;;;8.73;5.67;;;10.30;68.10;;;;;;5014109;28;20971;-61
2023/04/04 09:52:49;;;;;;;9.20;6.13;;;10.40;68.50;;;;;;5003784;28;20501;-61
2023/04/04 09:55:17;;;;;;;10.33;7.10;;;10.60;68.20;;;;;;5004276;28;20503;-61
2023/04/04 09:57:47;;;;;;;11.67;5.17;;;10.70;66.40;;;;;;5004804;28;20953;-61
2023/04/04 10:00:19;;;;;;;14.60;5.40;;;10.70;67.50;;;;;;5001123;28;20488;-61
2023/04/04 10:02:48;;;;;;;15.40;6.50;;;10.70;64.40;;;;;;5011992;28;21080;-61
2023/04/04 10:05:15;;;;;;;13.23;6.67;;;10.80;66.70;;;;;;5002241;28;20874;-61
2023/04/04 10:07:43;;;;;;;13.13;7.50;;;10.60;64.50;;;;;;5012101;28;21039;-61
2023/04/04 10:10:10;;;;;;;12.80;7.73;;;10.60;66.00;;;;;;5007626;28;20512;-61
2023/04/04 10:12:37;;;;;;;12.43;7.30;;;10.60;66.60;;;;;;4999265;28;20577;-61
2023/04/04 10:15:07;;;;;;;11.50;7.67;;;10.70;68.20;;;;;;5004158;28;20473;-61
2023/04/04 10:17:38;;;;;;;11.53;6.03;;;10.70;65.10;;;;;;5015160;28;20488;-61
2023/04/04 10:20:06;;;;;;;17.07;9.47;;;10.80;66.20;;;;;;5013210;28;20480;-62
2023/04/04 10:22:33;;;;;;;16.23;8.50;;;10.80;65.40;;;;;;5001155;28;21023;-61
2023/04/04 10:25:00;;;;;;;14.60;6.93;;;10.80;65.40;;;;;;4998929;28;21078;-62
2023/04/04 10:27:27;;;;;;;13.33;6.20;;;10.60;63.60;;;;;;5012004;28;20489;-62
2023/04/04 10:29:56;;;;;;;14.23;7.63;;;10.40;64.30;;;;;;4999922;28;20489;-61
2023/04/04 10:32:28;;;;;;;12.73;5.07;;;10.40;64.80;;;;;;4999572;28;20479;-61
2023/04/04 10:35:00;;;;;;;15.03;7.93;;;8.90;66.20;;;;;;5018605;28;20488;-62
2023/04/04 10:37:31;;;;;;;15.23;7.30;;;10.60;67.50;;;;;;5008398;28;20516;-61
2023/04/04 10:40:05;;;;;;;17.20;6.57;;;10.60;68.30;;;;;;5013467;28;20563;-61
2023/04/04 10:42:37;;;;;;;14.47;7.27;;;10.80;65.40;;;;;;5007670;28;20488;-62
2023/04/04 10:45:08;;;;;;;16.53;6.80;;;10.80;64.90;;;;;;4994841;28;20919;-61
2023/04/04 10:47:37;;;;;;;14.93;7.23;;;10.70;64.60;;;;;;4996433;28;21069;-61
2023/04/04 10:50:07;;;;;;;25.67;12.23;;;10.70;65.90;;;;;;5000801;28;20585;-60
2023/04/04 10:52:37;;;;;;;11.10;6.50;;;10.50;62.80;;;;;;5009132;28;20485;-61
2023/04/04 10:55:06;;;;;;;17.47;9.00;;;10.50;65.00;;;;;;5019729;28;20486;-61
2023/04/04 10:57:34;;;;;;;12.50;5.80;;;10.60;67.70;;;;;;5010156;28;20895;-60
2023/04/04 11:00:04;;;;;;;11.57;6.47;;;10.70;67.70;;;;;;5012040;28;20481;-61
2023/04/04 11:02:48;;;;;;;10.50;5.93;;;10.50;65.30;;;;;;4999717;28;21061;-61
2023/04/04 11:05:21;;;;;;;18.10;7.80;;;10.60;67.70;;;;;;4995828;28;20484;-62
2023/04/04 11:07:53;;;;;;;19.57;8.27;;;10.50;67.40;;;;;;5004159;28;20705;-62
2023/04/04 11:10:23;;;;;;;18.53;8.47;;;10.70;67.10;;;;;;5012709;28;21061;-62
2023/04/04 11:12:53;;;;;;;14.37;7.10;;;11.00;68.90;;;;;;5009813;28;20489;-62
2023/04/04 11:15:21;;;;;;;38.10;10.40;;;11.10;67.20;;;;;;5011325;28;20555;-62
2023/04/04 11:18:00;;;;;;;19.83;8.17;;;10.90;65.30;;;;;;5013419;28;20488;-61
2023/04/04 11:20:32;;;;;;;21.50;10.20;;;10.80;67.00;;;;;;4995066;28;20482;-62
2023/04/04 11:23:07;;;;;;;14.57;7.40;;;11.00;68.80;;;;;;4997217;28;20577;-62
2023/04/04 11:25:38;;;;;;;18.90;8.27;;;11.10;67.70;;;;;;4985522;28;20503;-62
2023/04/04 11:28:13;;;;;;;22.10;9.40;;;11.20;66.60;;;;;;5014525;28;20482;-62
2023/04/04 11:30:47;;;;;;;15.73;8.37;;;11.30;66.10;;;;;;5007089;28;20849;-62
2023/04/04 11:33:26;;;;;;;30.00;9.00;;;11.30;66.80;;;;;;5008745;28;20699;-62
2023/04/04 11:35:53;;;;;;;10.43;6.63;;;11.10;65.80;;;;;;4988987;28;20932;-62
2023/04/04 11:38:20;;;;;;;10.10;6.50;;;11.20;65.10;;;;;;4992770;28;20481;-62
2023/04/04 11:40:55;;;;;;;14.70;8.53;;;11.10;63.80;;;;;;4992389;28;20485;-62
2023/04/04 11:43:22;;;;;;;13.13;8.33;;;11.20;65.30;;;;;;4991126;28;20477;-61
2023/04/04 11:45:49;;;;;;;17.10;6.90;;;11.60;67.40;;;;;;4991486;28;20514;-61
2023/04/04 11:48:19;;;;;;;13.03;8.17;;;11.60;68.40;;;;;;4991308;28;21005;-62
2023/04/04 11:50:50;;;;;;;16.10;7.23;;;11.80;69.20;;;;;;4984692;28;20539;-62
2023/04/04 11:53:17;;;;;;;15.23;6.17;;;11.90;67.20;;;;;;5003936;28;20908;-62
2023/04/04 11:55:48;;;;;;;21.97;10.23;;;12.00;66.90;;;;;;4999361;28;20480;-62
2023/04/04 11:58:16;;;;;;;18.07;9.10;;;;;;;;;;4974385;28;20583;-62
2023/04/04 12:00:44;;;;;;;13.80;7.90;;;12.20;65.60;;;;;;4998559;28;20990;-63
2023/04/04 12:03:12;;;;;;;14.30;8.60;;;12.20;67.90;;;;;;4994544;28;20487;-62
2023/04/04 12:05:42;;;;;;;16.63;8.97;;;12.00;65.50;;;;;;4987800;28;20692;-63
2023/04/04 12:08:11;;;;;;;16.10;9.30;;;11.80;65.10;;;;;;4984873;28;20524;-63
2023/04/04 12:10:40;;;;;;;12.87;8.33;;;11.90;65.00;;;;;;4989693;28;20807;-62
2023/04/04 12:13:08;;;;;;;13.40;8.00;;;11.90;69.20;;;;;;4942626;28;20890;-62
2023/04/04 12:15:35;;;;;;;10.40;7.03;;;11.90;67.20;;;;;;4993697;28;20484;-64
2023/04/04 12:18:02;;;;;;;22.10;10.23;;;12.00;66.70;;;;;;4966385;28;20504;-62
2023/04/04 12:20:31;;;;;;;17.90;8.60;;;12.20;68.40;;;;;;4980306;28;20513;-62
2023/04/04 12:22:59;;;;;;;13.43;7.67;;;12.30;68.10;;;;;;4984873;28;20492;-61
2023/04/04 12:25:32;;;;;;;16.27;8.87;;;12.00;63.80;;;;;;4986488;28;20534;-61
2023/04/04 12:28:00;;;;;;;19.93;8.20;;;12.20;68.40;;;;;;4979228;28;20488;-61
2023/04/04 12:30:27;;;;;;;12.27;6.00;;;12.20;67.40;;;;;;4978473;28;20881;-61
2023/04/04 12:32:54;;;;;;;18.80;7.90;;;12.10;64.00;;;;;;4993861;28;20521;-61
2023/04/04 12:35:21;;;;;;;16.43;8.37;;;12.20;64.20;;;;;;4977662;28;20558;-61
2023/04/04 12:38:03;;;;;;;17.43;8.10;;;12.20;63.50;;;;;;4983059;28;21066;-62
2023/04/04 12:40:35;;;;;;;29.77;9.17;;;12.10;63.50;;;;;;4955644;28;20485;-62
2023/04/04 12:43:06;;;;;;;30.23;11.27;;;12.20;66.00;;;;;;4972286;28;20497;-62
2023/04/04 12:45:36;;;;;;;28.70;10.67;;;12.00;64.40;;;;;;4968887;28;20660;-63
2023/04/04 12:48:09;;;;;;;32.30;11.83;;;12.10;64.80;;;;;;4957091;28;20607;-62
2023/04/04 12:50:50;;;;;;;25.33;10.40;;;12.20;64.30;;;;;;4985269;28;20854;-62